sensor_id;sensor_type;location;lat;lon;timestamp;pressure;altitude;pressure_sealevel;temperature;humidity
7309;BME280;3695;53.330;9.876;2023-07-13T00:02:04;101888.88;;;28.31;nan
7309;BME280;3695;53.330;9.876;2023-07-13T00:04:30;101883.81;;;27.92;nan
7309;BME280;3695;53.330;9.876;2023-07-13T00:06:57;101871.50;;;29.42;nan
7309;BME280;3695;53.330;9.876;2023-07-13T00:09:23;101876.13;;;29.24;nan
7309;BME280;3695;53.330;9.876;2023-07-13T00:11:52;101874.47;;;29.23;nan
7309;BME280;3695;53.330;9.876;2023-07-13T00:14:19;101874.84;;;29.30;nan
7309;BME280;3695;53.330;9.876;2023-07-13T00:16:46;101863.06;;;29.87;nan
7309;BME280;3695;53.330;9.876;2023-07-13T00:19:14;101870.75;;;28.69;nan
7309;BME280;3695;53.330;9.876;2023-07-13T00:21:41;101835.09;;;33.40;nan
7309;BME280;3695;53.330;9.876;2023-07-13T00:24:08;101862.28;;;29.64;nan
7309;BME280;3695;53.330;9.876;2023-07-13T00:26:38;101860.00;;;29.74;nan
7309;BME280;3695;53.330;9.876;2023-07-13T00:29:05;101861.94;;;29.34;nan
7309;BME280;3695;53.330;9.876;2023-07-13T00:31:34;101872.06;;;28.86;nan
7309;BME280;3695;53.330;9.876;2023-07-13T00:34:01;101878.31;;;29.05;nan
7309;BME280;3695;53.330;9.876;2023-07-13T00:36:29;101885.47;;;28.34;nan
7309;BME280;3695;53.330;9.876;2023-07-13T00:38:56;101876.91;;;28.44;nan
7309;BME280;3695;53.330;9.876;2023-07-13T00:41:22;101894.94;;;27.78;nan
7309;BME280;3695;53.330;9.876;2023-07-13T00:43:49;101883.25;;;27.62;nan
7309;BME280;3695;53.330;9.876;2023-07-13T00:46:19;101891.19;;;27.69;nan
7309;BME280;3695;53.330;9.876;2023-07-13T00:48:46;101877.19;;;28.56;nan
7309;BME280;3695;53.330;9.876;2023-07-13T00:51:16;101876.13;;;28.66;nan
7309;BME280;3695;53.330;9.876;2023-07-13T00:53:45;101889.16;;;27.88;nan
7309;BME280;3695;53.330;9.876;2023-07-13T00:56:11;101884.63;;;28.19;nan
7309;BME280;3695;53.330;9.876;2023-07-13T00:58:39;101879.84;;;29.95;nan
7309;BME280;3695;53.330;9.876;2023-07-13T01:01:05;101868.25;;;30.85;nan
7309;BME280;3695;53.330;9.876;2023-07-13T01:03:34;101862.94;;;31.09;nan
7309;BME280;3695;53.330;9.876;2023-07-13T01:06:01;101865.78;;;30.83;nan
7309;BME280;3695;53.330;9.876;2023-07-13T01:08:28;101883.00;;;29.18;nan
7309;BME280;3695;53.330;9.876;2023-07-13T01:10:57;101860.44;;;31.51;nan
7309;BME280;3695;53.330;9.876;2023-07-13T01:13:24;101854.72;;;32.15;nan
7309;BME280;3695;53.330;9.876;2023-07-13T01:15:52;101864.13;;;31.89;nan
7309;BME280;3695;53.330;9.876;2023-07-13T01:18:21;101856.84;;;31.88;nan
7309;BME280;3695;53.330;9.876;2023-07-13T01:20:54;101859.16;;;31.40;nan
7309;BME280;3695;53.330;9.876;2023-07-13T01:23:22;101855.50;;;30.35;nan
7309;BME280;3695;53.330;9.876;2023-07-13T01:25:49;101863.03;;;30.26;nan
7309;BME280;3695;53.330;9.876;2023-07-13T01:28:16;101849.25;;;33.10;nan
7309;BME280;3695;53.330;9.876;2023-07-13T01:30:44;101876.22;;;30.34;nan
7309;BME280;3695;53.330;9.876;2023-07-13T01:33:12;101873.72;;;30.24;nan
7309;BME280;3695;53.330;9.876;2023-07-13T01:35:39;101875.56;;;29.89;nan
7309;BME280;3695;53.330;9.876;2023-07-13T01:38:07;101875.66;;;30.06;nan
7309;BME280;3695;53.330;9.876;2023-07-13T01:40:36;101878.91;;;29.69;nan
7309;BME280;3695;53.330;9.876;2023-07-13T01:43:05;101870.38;;;29.74;nan
7309;BME280;3695;53.330;9.876;2023-07-13T01:45:32;101871.69;;;29.76;nan
7309;BME280;3695;53.330;9.876;2023-07-13T01:47:58;101881.22;;;29.00;nan
7309;BME280;3695;53.330;9.876;2023-07-13T01:50:25;101870.50;;;29.69;nan
7309;BME280;3695;53.330;9.876;2023-07-13T01:52:52;101828.03;;;38.52;nan
7309;BME280;3695;53.330;9.876;2023-07-13T01:55:21;101866.78;;;30.22;nan
7309;BME280;3695;53.330;9.876;2023-07-13T01:57:48;101872.31;;;29.42;nan
7309;BME280;3695;53.330;9.876;2023-07-13T02:00:15;101867.50;;;29.34;nan
7309;BME280;3695;53.330;9.876;2023-07-13T02:02:42;101855.97;;;29.81;nan
7309;BME280;3695;53.330;9.876;2023-07-13T02:05:09;101865.72;;;30.00;nan
7309;BME280;3695;53.330;9.876;2023-07-13T02:07:36;101866.03;;;27.74;nan
7309;BME280;3695;53.330;9.876;2023-07-13T02:10:04;101878.63;;;27.85;nan
7309;BME280;3695;53.330;9.876;2023-07-13T02:12:32;101856.59;;;29.47;nan
7309;BME280;3695;53.330;9.876;2023-07-13T02:14:58;101856.53;;;29.69;nan
7309;BME280;3695;53.330;9.876;2023-07-13T02:17:26;101866.38;;;28.91;nan
7309;BME280;3695;53.330;9.876;2023-07-13T02:19:52;101873.75;;;28.59;nan
7309;BME280;3695;53.330;9.876;2023-07-13T02:22:19;101889.03;;;27.79;nan
7309;BME280;3695;53.330;9.876;2023-07-13T02:24:45;101895.06;;;26.65;nan
7309;BME280;3695;53.330;9.876;2023-07-13T02:27:12;101881.56;;;27.28;nan
7309;BME280;3695;53.330;9.876;2023-07-13T02:29:40;101884.56;;;27.32;nan
7309;BME280;3695;53.330;9.876;2023-07-13T02:32:07;101889.41;;;26.89;nan
7309;BME280;3695;53.330;9.876;2023-07-13T02:34:34;101879.66;;;27.89;nan
7309;BME280;3695;53.330;9.876;2023-07-13T02:37:00;101876.91;;;27.56;nan
7309;BME280;3695;53.330;9.876;2023-07-13T02:39:27;101874.91;;;27.11;nan
7309;BME280;3695;53.330;9.876;2023-07-13T02:41:53;101871.41;;;27.84;nan
7309;BME280;3695;53.330;9.876;2023-07-13T02:44:19;101876.31;;;27.59;nan
7309;BME280;3695;53.330;9.876;2023-07-13T02:46:47;101874.91;;;27.89;nan
7309;BME280;3695;53.330;9.876;2023-07-13T02:49:14;101878.44;;;27.49;nan
7309;BME280;3695;53.330;9.876;2023-07-13T02:51:40;101877.88;;;27.66;nan
7309;BME280;3695;53.330;9.876;2023-07-13T02:54:07;101888.59;;;26.51;nan
7309;BME280;3695;53.330;9.876;2023-07-13T02:56:33;101855.16;;;29.04;nan
7309;BME280;3695;53.330;9.876;2023-07-13T02:59:00;101853.59;;;29.21;nan
7309;BME280;3695;53.330;9.876;2023-07-13T03:01:28;101840.41;;;29.66;nan
7309;BME280;3695;53.330;9.876;2023-07-13T03:03:55;101861.31;;;28.93;nan
7309;BME280;3695;53.330;9.876;2023-07-13T03:06:22;101851.69;;;29.52;nan
7309;BME280;3695;53.330;9.876;2023-07-13T03:08:50;101839.53;;;30.36;nan
7309;BME280;3695;53.330;9.876;2023-07-13T03:11:18;101844.50;;;29.99;nan
7309;BME280;3695;53.330;9.876;2023-07-13T03:13:46;101841.03;;;29.94;nan
7309;BME280;3695;53.330;9.876;2023-07-13T03:16:13;101864.28;;;28.82;nan
7309;BME280;3695;53.330;9.876;2023-07-13T03:18:41;101881.94;;;28.14;nan
7309;BME280;3695;53.330;9.876;2023-07-13T03:21:09;101875.16;;;27.47;nan
7309;BME280;3695;53.330;9.876;2023-07-13T03:23:36;101874.34;;;27.27;nan
7309;BME280;3695;53.330;9.876;2023-07-13T03:26:03;101872.44;;;28.15;nan
7309;BME280;3695;53.330;9.876;2023-07-13T03:28:30;101882.78;;;27.22;nan
7309;BME280;3695;53.330;9.876;2023-07-13T03:31:01;101880.78;;;27.09;nan
7309;BME280;3695;53.330;9.876;2023-07-13T03:33:28;101894.53;;;25.62;nan
7309;BME280;3695;53.330;9.876;2023-07-13T03:35:55;101868.19;;;26.93;nan
7309;BME280;3695;53.330;9.876;2023-07-13T03:38:23;101879.63;;;26.73;nan
7309;BME280;3695;53.330;9.876;2023-07-13T03:40:50;101873.81;;;27.58;nan
7309;BME280;3695;53.330;9.876;2023-07-13T03:43:16;101873.97;;;27.67;nan
7309;BME280;3695;53.330;9.876;2023-07-13T03:45:43;101883.00;;;27.58;nan
7309;BME280;3695;53.330;9.876;2023-07-13T03:48:09;101886.69;;;28.00;nan
7309;BME280;3695;53.330;9.876;2023-07-13T03:50:36;101867.13;;;29.50;nan
7309;BME280;3695;53.330;9.876;2023-07-13T03:53:04;101864.94;;;29.69;nan
7309;BME280;3695;53.330;9.876;2023-07-13T03:55:32;101863.75;;;30.01;nan
7309;BME280;3695;53.330;9.876;2023-07-13T03:58:01;101869.84;;;28.82;nan
7309;BME280;3695;53.330;9.876;2023-07-13T04:00:46;101875.75;;;29.39;nan
7309;BME280;3695;53.330;9.876;2023-07-13T04:03:12;101867.78;;;29.47;nan
7309;BME280;3695;53.330;9.876;2023-07-13T04:05:39;101865.72;;;30.00;nan
7309;BME280;3695;53.330;9.876;2023-07-13T04:08:08;101867.00;;;29.55;nan
7309;BME280;3695;53.330;9.876;2023-07-13T04:10:38;101860.59;;;30.42;nan
7309;BME280;3695;53.330;9.876;2023-07-13T04:13:04;101864.16;;;29.46;nan
7309;BME280;3695;53.330;9.876;2023-07-13T04:15:33;101862.25;;;29.95;nan
7309;BME280;3695;53.330;9.876;2023-07-13T04:18:00;101874.47;;;28.65;nan
7309;BME280;3695;53.330;9.876;2023-07-13T04:20:28;101879.38;;;28.81;nan
7309;BME280;3695;53.330;9.876;2023-07-13T04:22:55;101861.28;;;29.60;nan
7309;BME280;3695;53.330;9.876;2023-07-13T04:25:22;101873.88;;;29.49;nan
7309;BME280;3695;53.330;9.876;2023-07-13T04:27:50;101857.28;;;29.52;nan
7309;BME280;3695;53.330;9.876;2023-07-13T04:30:17;101869.44;;;28.53;nan
7309;BME280;3695;53.330;9.876;2023-07-13T04:32:44;101871.22;;;28.85;nan
7309;BME280;3695;53.330;9.876;2023-07-13T04:35:10;101865.16;;;29.28;nan
7309;BME280;3695;53.330;9.876;2023-07-13T04:37:36;101877.63;;;27.16;nan
7309;BME280;3695;53.330;9.876;2023-07-13T04:40:03;101859.97;;;29.35;nan
7309;BME280;3695;53.330;9.876;2023-07-13T04:42:32;101855.19;;;29.13;nan
7309;BME280;3695;53.330;9.876;2023-07-13T04:45:01;101866.25;;;28.05;nan
7309;BME280;3695;53.330;9.876;2023-07-13T04:47:30;101865.53;;;29.12;nan
7309;BME280;3695;53.330;9.876;2023-07-13T04:49:57;101882.59;;;28.39;nan
7309;BME280;3695;53.330;9.876;2023-07-13T04:52:24;101887.22;;;28.16;nan
7309;BME280;3695;53.330;9.876;2023-07-13T04:54:50;101895.97;;;27.17;nan
7309;BME280;3695;53.330;9.876;2023-07-13T04:57:16;101886.78;;;26.97;nan
7309;BME280;3695;53.330;9.876;2023-07-13T04:59:43;101901.28;;;27.32;nan
7309;BME280;3695;53.330;9.876;2023-07-13T05:02:11;101906.03;;;26.75;nan
7309;BME280;3695;53.330;9.876;2023-07-13T05:04:38;101903.09;;;25.95;nan
7309;BME280;3695;53.330;9.876;2023-07-13T05:07:05;101902.78;;;26.49;nan
7309;BME280;3695;53.330;9.876;2023-07-13T05:09:34;101901.38;;;27.27;nan
7309;BME280;3695;53.330;9.876;2023-07-13T05:12:06;101899.66;;;29.32;nan
7309;BME280;3695;53.330;9.876;2023-07-13T05:14:32;101902.50;;;27.58;nan
7309;BME280;3695;53.330;9.876;2023-07-13T05:16:59;101900.50;;;27.78;nan
7309;BME280;3695;53.330;9.876;2023-07-13T05:19:26;101911.66;;;26.89;nan
7309;BME280;3695;53.330;9.876;2023-07-13T05:21:53;101917.00;;;26.85;nan
7309;BME280;3695;53.330;9.876;2023-07-13T05:24:19;101922.50;;;26.72;nan
7309;BME280;3695;53.330;9.876;2023-07-13T05:26:46;101906.44;;;28.45;nan
7309;BME280;3695;53.330;9.876;2023-07-13T05:29:12;101917.78;;;28.62;nan
7309;BME280;3695;53.330;9.876;2023-07-13T05:31:39;101926.75;;;28.18;nan
7309;BME280;3695;53.330;9.876;2023-07-13T05:34:05;101939.72;;;26.92;nan
7309;BME280;3695;53.330;9.876;2023-07-13T05:36:33;101914.47;;;27.59;nan
7309;BME280;3695;53.330;9.876;2023-07-13T05:38:59;101924.81;;;26.83;nan
7309;BME280;3695;53.330;9.876;2023-07-13T05:41:26;101922.63;;;26.61;nan
7309;BME280;3695;53.330;9.876;2023-07-13T05:43:52;101936.31;;;25.13;nan
7309;BME280;3695;53.330;9.876;2023-07-13T05:46:19;101928.50;;;26.79;nan
7309;BME280;3695;53.330;9.876;2023-07-13T05:48:45;101931.53;;;24.69;nan
7309;BME280;3695;53.330;9.876;2023-07-13T05:51:12;101916.97;;;26.24;nan
7309;BME280;3695;53.330;9.876;2023-07-13T05:53:40;101924.25;;;26.44;nan
7309;BME280;3695;53.330;9.876;2023-07-13T05:56:06;101932.00;;;27.59;nan
7309;BME280;3695;53.330;9.876;2023-07-13T05:58:33;101945.16;;;25.49;nan
7309;BME280;3695;53.330;9.876;2023-07-13T06:01:01;101938.44;;;26.85;nan
7309;BME280;3695;53.330;9.876;2023-07-13T06:03:29;101930.09;;;27.74;nan
7309;BME280;3695;53.330;9.876;2023-07-13T06:05:55;101933.06;;;26.51;nan
7309;BME280;3695;53.330;9.876;2023-07-13T06:08:22;101940.41;;;27.22;nan
7309;BME280;3695;53.330;9.876;2023-07-13T06:10:53;101940.38;;;26.65;nan
7309;BME280;3695;53.330;9.876;2023-07-13T06:13:19;101956.31;;;25.44;nan
7309;BME280;3695;53.330;9.876;2023-07-13T06:15:48;101938.66;;;26.46;nan
7309;BME280;3695;53.330;9.876;2023-07-13T06:18:14;101935.97;;;28.46;nan
7309;BME280;3695;53.330;9.876;2023-07-13T06:20:41;101937.94;;;27.72;nan
7309;BME280;3695;53.330;9.876;2023-07-13T06:23:07;101933.78;;;28.15;nan
7309;BME280;3695;53.330;9.876;2023-07-13T06:25:34;101924.50;;;29.33;nan
7309;BME280;3695;53.330;9.876;2023-07-13T06:28:02;101947.66;;;28.48;nan
7309;BME280;3695;53.330;9.876;2023-07-13T06:30:30;101948.56;;;27.00;nan
7309;BME280;3695;53.330;9.876;2023-07-13T06:32:57;101955.94;;;26.19;nan
7309;BME280;3695;53.330;9.876;2023-07-13T06:35:23;101961.63;;;27.18;nan
7309;BME280;3695;53.330;9.876;2023-07-13T06:37:50;101959.16;;;28.00;nan
7309;BME280;3695;53.330;9.876;2023-07-13T06:40:16;101970.88;;;25.65;nan
7309;BME280;3695;53.330;9.876;2023-07-13T06:42:43;101965.03;;;27.15;nan
7309;BME280;3695;53.330;9.876;2023-07-13T06:45:11;101970.25;;;26.97;nan
7309;BME280;3695;53.330;9.876;2023-07-13T06:47:39;101969.91;;;26.61;nan
7309;BME280;3695;53.330;9.876;2023-07-13T06:50:10;101977.81;;;25.28;nan
7309;BME280;3695;53.330;9.876;2023-07-13T06:52:37;101962.56;;;26.89;nan
7309;BME280;3695;53.330;9.876;2023-07-13T06:55:04;101958.91;;;27.83;nan
7309;BME280;3695;53.330;9.876;2023-07-13T06:57:30;101951.78;;;27.77;nan
7309;BME280;3695;53.330;9.876;2023-07-13T06:59:57;101966.38;;;26.99;nan
7309;BME280;3695;53.330;9.876;2023-07-13T07:02:25;101960.84;;;27.69;nan
7309;BME280;3695;53.330;9.876;2023-07-13T07:04:51;101972.75;;;28.89;nan
7309;BME280;3695;53.330;9.876;2023-07-13T07:07:19;101931.47;;;31.46;nan
7309;BME280;3695;53.330;9.876;2023-07-13T07:09:45;101943.34;;;30.83;nan
7309;BME280;3695;53.330;9.876;2023-07-13T07:12:12;101956.72;;;28.95;nan
7309;BME280;3695;53.330;9.876;2023-07-13T07:14:39;101946.94;;;29.95;nan
7309;BME280;3695;53.330;9.876;2023-07-13T07:17:05;101961.78;;;30.35;nan
7309;BME280;3695;53.330;9.876;2023-07-13T07:19:36;101945.78;;;31.79;nan
7309;BME280;3695;53.330;9.876;2023-07-13T07:22:02;101962.16;;;32.15;nan
7309;BME280;3695;53.330;9.876;2023-07-13T07:24:29;101953.59;;;31.30;nan
7309;BME280;3695;53.330;9.876;2023-07-13T07:26:55;101971.44;;;29.09;nan
7309;BME280;3695;53.330;9.876;2023-07-13T07:29:22;101954.63;;;30.21;nan
7309;BME280;3695;53.330;9.876;2023-07-13T07:31:51;101961.16;;;30.07;nan
7309;BME280;3695;53.330;9.876;2023-07-13T07:34:18;101982.91;;;30.11;nan
7309;BME280;3695;53.330;9.876;2023-07-13T07:36:46;101979.81;;;29.90;nan
7309;BME280;3695;53.330;9.876;2023-07-13T07:39:12;101977.50;;;29.92;nan
7309;BME280;3695;53.330;9.876;2023-07-13T07:41:38;101928.03;;;40.27;nan
7309;BME280;3695;53.330;9.876;2023-07-13T07:44:05;101958.78;;;31.92;nan
7309;BME280;3695;53.330;9.876;2023-07-13T07:46:32;101964.63;;;29.82;nan
7309;BME280;3695;53.330;9.876;2023-07-13T07:48:59;101972.06;;;30.57;nan
7309;BME280;3695;53.330;9.876;2023-07-13T07:51:25;101957.16;;;31.83;nan
7309;BME280;3695;53.330;9.876;2023-07-13T07:53:53;101966.56;;;30.35;nan
7309;BME280;3695;53.330;9.876;2023-07-13T07:56:20;101978.53;;;30.66;nan
7309;BME280;3695;53.330;9.876;2023-07-13T07:58:46;101948.97;;;31.35;nan
7309;BME280;3695;53.330;9.876;2023-07-13T08:01:12;101972.19;;;27.02;nan
7309;BME280;3695;53.330;9.876;2023-07-13T08:03:39;101973.97;;;27.31;nan
7309;BME280;3695;53.330;9.876;2023-07-13T08:06:05;101985.78;;;26.08;nan
7309;BME280;3695;53.330;9.876;2023-07-13T08:08:32;101983.38;;;27.16;nan
7309;BME280;3695;53.330;9.876;2023-07-13T08:11:02;101981.31;;;28.38;nan
7309;BME280;3695;53.330;9.876;2023-07-13T08:13:28;101960.50;;;29.35;nan
7309;BME280;3695;53.330;9.876;2023-07-13T08:15:55;101961.69;;;29.20;nan
7309;BME280;3695;53.330;9.876;2023-07-13T08:18:21;101973.69;;;28.57;nan
7309;BME280;3695;53.330;9.876;2023-07-13T08:20:48;101974.00;;;28.42;nan
7309;BME280;3695;53.330;9.876;2023-07-13T08:23:14;101972.97;;;29.15;nan
7309;BME280;3695;53.330;9.876;2023-07-13T08:25:41;101963.06;;;29.45;nan
7309;BME280;3695;53.330;9.876;2023-07-13T08:28:09;101964.78;;;30.08;nan
7309;BME280;3695;53.330;9.876;2023-07-13T08:30:36;101972.06;;;30.18;nan
7309;BME280;3695;53.330;9.876;2023-07-13T08:33:02;101960.38;;;29.62;nan
7309;BME280;3695;53.330;9.876;2023-07-13T08:35:29;101962.97;;;30.43;nan
7309;BME280;3695;53.330;9.876;2023-07-13T08:37:55;101965.13;;;29.39;nan
7309;BME280;3695;53.330;9.876;2023-07-13T08:40:27;101976.22;;;29.31;nan
7309;BME280;3695;53.330;9.876;2023-07-13T08:42:55;101963.91;;;29.32;nan
7309;BME280;3695;53.330;9.876;2023-07-13T08:45:29;101986.94;;;28.05;nan
7309;BME280;3695;53.330;9.876;2023-07-13T08:48:00;101996.81;;;26.66;nan
7309;BME280;3695;53.330;9.876;2023-07-13T08:50:32;101975.50;;;28.20;nan
7309;BME280;3695;53.330;9.876;2023-07-13T08:53:02;101985.94;;;28.83;nan
7309;BME280;3695;53.330;9.876;2023-07-13T08:55:32;101970.47;;;27.90;nan
7309;BME280;3695;53.330;9.876;2023-07-13T08:58:07;101978.84;;;29.94;nan
7309;BME280;3695;53.330;9.876;2023-07-13T09:00:43;101978.69;;;28.82;nan
7309;BME280;3695;53.330;9.876;2023-07-13T09:03:19;101973.09;;;29.32;nan
7309;BME280;3695;53.330;9.876;2023-07-13T09:05:52;101965.03;;;29.08;nan
7309;BME280;3695;53.330;9.876;2023-07-13T09:08:33;101950.72;;;30.70;nan
7309;BME280;3695;53.330;9.876;2023-07-13T09:11:05;101977.41;;;29.16;nan
7309;BME280;3695;53.330;9.876;2023-07-13T09:13:44;101956.88;;;29.34;nan
7309;BME280;3695;53.330;9.876;2023-07-13T09:16:16;101953.44;;;30.04;nan
7309;BME280;3695;53.330;9.876;2023-07-13T09:18:45;101950.78;;;30.39;nan
7309;BME280;3695;53.330;9.876;2023-07-13T09:21:15;101971.22;;;28.42;nan
7309;BME280;3695;53.330;9.876;2023-07-13T09:23:42;101953.22;;;30.01;nan
7309;BME280;3695;53.330;9.876;2023-07-13T09:26:16;101954.25;;;29.52;nan
7309;BME280;3695;53.330;9.876;2023-07-13T09:28:46;101969.72;;;29.58;nan
7309;BME280;3695;53.330;9.876;2023-07-13T09:31:17;101961.66;;;30.49;nan
7309;BME280;3695;53.330;9.876;2023-07-13T09:33:45;101943.56;;;30.55;nan
7309;BME280;3695;53.330;9.876;2023-07-13T09:36:22;101959.41;;;28.86;nan
7309;BME280;3695;53.330;9.876;2023-07-13T09:38:57;101941.66;;;30.64;nan
7309;BME280;3695;53.330;9.876;2023-07-13T09:41:31;101955.72;;;30.42;nan
7309;BME280;3695;53.330;9.876;2023-07-13T09:44:11;101956.06;;;30.49;nan
7309;BME280;3695;53.330;9.876;2023-07-13T09:46:43;101973.22;;;29.05;nan
7309;BME280;3695;53.330;9.876;2023-07-13T09:49:11;101949.13;;;29.76;nan
7309;BME280;3695;53.330;9.876;2023-07-13T09:51:38;101963.53;;;30.62;nan
7309;BME280;3695;53.330;9.876;2023-07-13T09:54:18;101970.28;;;29.91;nan
7309;BME280;3695;53.330;9.876;2023-07-13T09:56:45;101945.47;;;30.86;nan
7309;BME280;3695;53.330;9.876;2023-07-13T09:59:19;101955.88;;;31.46;nan
7309;BME280;3695;53.330;9.876;2023-07-13T10:01:47;101947.25;;;31.85;nan
7309;BME280;3695;53.330;9.876;2023-07-13T10:04:17;101965.53;;;29.69;nan
7309;BME280;3695;53.330;9.876;2023-07-13T10:06:45;101963.59;;;30.97;nan
7309;BME280;3695;53.330;9.876;2023-07-13T10:09:15;101960.41;;;30.73;nan
7309;BME280;3695;53.330;9.876;2023-07-13T10:11:42;101976.38;;;30.24;nan
7309;BME280;3695;53.330;9.876;2023-07-13T10:14:12;101950.09;;;30.82;nan
7309;BME280;3695;53.330;9.876;2023-07-13T10:16:41;101959.72;;;30.58;nan
7309;BME280;3695;53.330;9.876;2023-07-13T10:19:14;101955.09;;;29.83;nan
7309;BME280;3695;53.330;9.876;2023-07-13T10:21:50;101943.44;;;30.21;nan
7309;BME280;3695;53.330;9.876;2023-07-13T10:24:21;101961.69;;;29.20;nan
7309;BME280;3695;53.330;9.876;2023-07-13T10:26:52;101927.84;;;32.10;nan
7309;BME280;3695;53.330;9.876;2023-07-13T10:29:22;101931.50;;;31.38;nan
7309;BME280;3695;53.330;9.876;2023-07-13T10:31:50;101928.25;;;32.67;nan
7309;BME280;3695;53.330;9.876;2023-07-13T10:34:17;101935.25;;;33.24;nan
7309;BME280;3695;53.330;9.876;2023-07-13T10:36:46;101927.63;;;32.32;nan
7309;BME280;3695;53.330;9.876;2023-07-13T10:39:16;101918.69;;;33.76;nan
7309;BME280;3695;53.330;9.876;2023-07-13T10:41:44;101930.88;;;33.35;nan
7309;BME280;3695;53.330;9.876;2023-07-13T10:44:20;101935.31;;;32.44;nan
7309;BME280;3695;53.330;9.876;2023-07-13T10:46:51;101954.50;;;30.74;nan
7309;BME280;3695;53.330;9.876;2023-07-13T10:49:24;101939.59;;;31.22;nan
7309;BME280;3695;53.330;9.876;2023-07-13T10:51:53;101931.16;;;31.13;nan
7309;BME280;3695;53.330;9.876;2023-07-13T10:54:21;101925.53;;;31.13;nan
7309;BME280;3695;53.330;9.876;2023-07-13T10:56:53;101915.47;;;32.49;nan
7309;BME280;3695;53.330;9.876;2023-07-13T10:59:27;101939.69;;;30.74;nan
7309;BME280;3695;53.330;9.876;2023-07-13T11:02:00;101927.38;;;32.46;nan
7309;BME280;3695;53.330;9.876;2023-07-13T11:04:43;101924.28;;;32.01;nan
7309;BME280;3695;53.330;9.876;2023-07-13T11:07:19;101890.63;;;33.55;nan
7309;BME280;3695;53.330;9.876;2023-07-13T11:09:49;101926.88;;;31.42;nan
7309;BME280;3695;53.330;9.876;2023-07-13T11:12:29;101889.63;;;33.72;nan
7309;BME280;3695;53.330;9.876;2023-07-13T11:15:26;101886.00;;;33.71;nan
7309;BME280;3695;53.330;9.876;2023-07-13T11:17:54;101913.34;;;32.08;nan
7309;BME280;3695;53.330;9.876;2023-07-13T11:20:35;101902.66;;;32.90;nan
7309;BME280;3695;53.330;9.876;2023-07-13T11:23:20;101920.69;;;31.91;nan
7309;BME280;3695;53.330;9.876;2023-07-13T11:25:47;101903.75;;;33.18;nan
7309;BME280;3695;53.330;9.876;2023-07-13T11:28:21;101915.81;;;32.47;nan
7309;BME280;3695;53.330;9.876;2023-07-13T11:30:50;101930.03;;;31.40;nan
7309;BME280;3695;53.330;9.876;2023-07-13T11:33:30;101928.25;;;32.67;nan
7309;BME280;3695;53.330;9.876;2023-07-13T11:36:15;101934.59;;;31.53;nan
7309;BME280;3695;53.330;9.876;2023-07-13T11:38:43;101928.19;;;32.46;nan
7309;BME280;3695;53.330;9.876;2023-07-13T11:41:15;101945.50;;;31.20;nan
7309;BME280;3695;53.330;9.876;2023-07-13T11:43:43;101909.28;;;33.27;nan
7309;BME280;3695;53.330;9.876;2023-07-13T11:46:20;101945.16;;;30.79;nan
7309;BME280;3695;53.330;9.876;2023-07-13T11:48:49;101904.75;;;33.34;nan
7309;BME280;3695;53.330;9.876;2023-07-13T11:51:20;101934.47;;;31.33;nan
7309;BME280;3695;53.330;9.876;2023-07-13T11:53:50;101924.91;;;32.74;nan
7309;BME280;3695;53.330;9.876;2023-07-13T11:56:17;101918.38;;;32.32;nan
7309;BME280;3695;53.330;9.876;2023-07-13T11:58:48;101930.34;;;32.03;nan
7309;BME280;3695;53.330;9.876;2023-07-13T12:01:22;101949.94;;;29.45;nan
7309;BME280;3695;53.330;9.876;2023-07-13T12:03:49;101902.25;;;31.64;nan
7309;BME280;3695;53.330;9.876;2023-07-13T12:06:28;101934.59;;;30.76;nan
7309;BME280;3695;53.330;9.876;2023-07-13T12:08:59;101928.81;;;31.58;nan
7309;BME280;3695;53.330;9.876;2023-07-13T12:11:27;101941.91;;;31.28;nan
7309;BME280;3695;53.330;9.876;2023-07-13T12:13:53;101944.34;;;31.39;nan
7309;BME280;3695;53.330;9.876;2023-07-13T12:16:32;102013.06;;;29.33;nan
7309;BME280;3695;53.330;9.876;2023-07-13T12:19:00;102103.88;;;26.40;nan
7309;BME280;3695;53.330;9.876;2023-07-13T12:21:37;102101.03;;;26.50;nan
7309;BME280;3695;53.330;9.876;2023-07-13T12:24:04;102084.31;;;27.03;nan
7309;BME280;3695;53.330;9.876;2023-07-13T12:26:31;102089.63;;;27.98;nan
7309;BME280;3695;53.330;9.876;2023-07-13T12:29:00;102123.22;;;27.88;nan
7309;BME280;3695;53.330;9.876;2023-07-13T12:31:33;102121.56;;;27.07;nan
7309;BME280;3695;53.330;9.876;2023-07-13T12:34:02;102129.13;;;25.75;nan
7309;BME280;3695;53.330;9.876;2023-07-13T12:36:33;102110.31;;;27.36;nan
7309;BME280;3695;53.330;9.876;2023-07-13T12:39:04;102101.94;;;28.30;nan
7309;BME280;3695;53.330;9.876;2023-07-13T12:41:32;102111.28;;;28.39;nan
7309;BME280;3695;53.330;9.876;2023-07-13T12:44:00;102128.50;;;27.28;nan
7309;BME280;3695;53.330;9.876;2023-07-13T12:46:26;102129.66;;;28.40;nan
7309;BME280;3695;53.330;9.876;2023-07-13T12:48:54;102143.22;;;26.81;nan
7309;BME280;3695;53.330;9.876;2023-07-13T12:51:25;102141.63;;;28.21;nan
7309;BME280;3695;53.330;9.876;2023-07-13T12:53:57;102149.59;;;28.93;nan
7309;BME280;3695;53.330;9.876;2023-07-13T12:56:27;102172.19;;;27.94;nan
7309;BME280;3695;53.330;9.876;2023-07-13T12:59:02;102157.69;;;27.54;nan
7309;BME280;3695;53.330;9.876;2023-07-13T13:01:34;102095.88;;;37.30;nan
7309;BME280;3695;53.330;9.876;2023-07-13T13:04:05;102123.94;;;33.05;nan
7309;BME280;3695;53.330;9.876;2023-07-13T13:06:38;102115.13;;;32.85;nan
7309;BME280;3695;53.330;9.876;2023-07-13T13:09:26;102150.22;;;33.38;nan
7309;BME280;3695;53.330;9.876;2023-07-13T13:11:52;102149.63;;;32.95;nan
7309;BME280;3695;53.330;9.876;2023-07-13T13:14:22;102158.63;;;32.71;nan
7309;BME280;3695;53.330;9.876;2023-07-13T13:16:50;102147.66;;;31.79;nan
7309;BME280;3695;53.330;9.876;2023-07-13T13:19:20;102146.97;;;32.43;nan
7309;BME280;3695;53.330;9.876;2023-07-13T13:21:48;102145.78;;;31.66;nan
7309;BME280;3695;53.330;9.876;2023-07-13T13:24:23;102159.53;;;29.13;nan
7309;BME280;3695;53.330;9.876;2023-07-13T13:26:52;102138.38;;;31.53;nan
7309;BME280;3695;53.330;9.876;2023-07-13T13:29:23;102163.38;;;31.32;nan
7309;BME280;3695;53.330;9.876;2023-07-13T13:31:50;102141.22;;;31.70;nan
7309;BME280;3695;53.330;9.876;2023-07-13T13:34:18;102163.25;;;30.22;nan
7309;BME280;3695;53.330;9.876;2023-07-13T13:36:46;102153.56;;;31.12;nan
7309;BME280;3695;53.330;9.876;2023-07-13T13:39:24;102162.13;;;31.07;nan
7309;BME280;3695;53.330;9.876;2023-07-13T13:41:53;102165.44;;;29.89;nan